Time;durP1;ratioP1;P1;durP2;ratioP2;P2;SDS_P1;SDS_P2;PMS_P1;PMS_P2;Temp;Humidity;BMP_temperature;BMP_pressure;BME280_temperature;BME280_humidity;BME280_pressure;Samples;Min_cycle;Max_cycle;Signal;HPM_P1;HPM_P2
2021/12/06 18:53:33;;;;;;;27.80;11.40;;;3.70;99.90;;;;;;6240572;22;20036;-89
2021/12/06 18:56:49;;;;;;;20.48;10.75;;;3.60;99.90;;;;;;6108572;23;20033;-93
2021/12/06 18:59:58;;;;;;;18.42;9.88;;;3.60;99.90;;;;;;6123477;23;20074;-91
2021/12/06 19:02:40;;;;;;;21.90;9.48;;;3.60;99.90;;;;;;6124183;23;20018;-93
2021/12/06 19:05:15;;;;;;;18.95;9.23;;;3.70;99.90;;;;;;6100475;23;20073;-91
2021/12/06 19:08:07;;;;;;;18.23;9.05;;;3.80;99.90;;;;;;6102006;23;20399;-90
2021/12/06 19:10:56;;;;;;;17.38;8.85;;;3.70;99.90;;;;;;6102854;23;20022;-91
2021/12/06 19:13:49;;;;;;;19.92;10.38;;;3.50;99.90;;;;;;6124604;23;20022;-91
2021/12/06 19:17:11;;;;;;;16.08;8.70;;;3.60;99.90;;;;;;6124614;23;20170;-92
2021/12/06 19:20:23;;;;;;;;;;;;;;;;;;;;;
2021/12/06 19:23:56;;;;;;;18.23;9.60;;;3.60;99.90;;;;;;6125247;23;20021;-92
2021/12/06 19:34:17;;;;;;;14.98;7.85;;;3.80;99.90;;;;;;6200866;23;20451;-91
2021/12/06 19:48:48;;;;;;;14.20;7.55;;;3.60;99.90;;;;;;6250911;23;20064;-90
2021/12/06 19:52:22;;;;;;;13.98;7.25;;;3.70;99.90;;;;;;6086400;23;20371;-90
2021/12/06 19:55:07;;;;;;;15.55;8.45;;;3.50;99.90;;;;;;6218619;23;20073;-91
2021/12/06 19:58:09;;;;;;;14.00;7.82;;;3.50;99.90;;;;;;6217441;23;20043;-91
2021/12/06 20:02:05;;;;;;;13.52;7.75;;;3.40;99.90;;;;;;6126783;23;20053;-91
2021/12/06 20:09:02;;;;;;;13.75;7.93;;;3.70;99.90;;;;;;6098618;23;19917;-94
2021/12/06 20:29:12;;;;;;;13.18;8.00;;;3.50;99.90;;;;;;6209505;22;20027;-91
2021/12/06 20:32:39;;;;;;;;;;;;;;;;;;;;;
2021/12/06 20:48:26;;;;;;;10.88;6.18;;;3.40;99.90;;;;;;6247921;23;20071;-92
2021/12/06 21:15:16;;;;;;;;;;;;;;;;;;;;;
2021/12/06 21:18:11;;;;;;;12.23;6.40;;;3.60;99.90;;;;;;6235727;22;20081;-92
2021/12/06 21:20:54;;;;;;;11.85;5.70;;;3.50;99.90;;;;;;6210161;23;20020;-92
2021/12/06 21:23:58;;;;;;;9.07;5.20;;;3.50;99.90;;;;;;6215295;23;20337;-93
2021/12/06 21:27:26;;;;;;;10.23;5.38;;;3.50;99.90;;;;;;6192490;23;20383;-92
2021/12/06 21:29:55;;;;;;;8.30;4.25;;;3.30;99.90;;;;;;6191038;23;20116;-89
2021/12/06 21:32:22;;;;;;;7.80;5.30;;;3.20;99.90;;;;;;6215688;23;20024;-93
2021/12/06 21:34:50;;;;;;;11.80;6.05;;;3.20;99.90;;;;;;6216386;23;20028;-90
2021/12/06 21:42:05;;;;;;;10.80;4.63;;;3.20;99.90;;;;;;6149903;23;20025;-87
2021/12/06 21:44:35;;;;;;;8.82;5.32;;;3.20;99.90;;;;;;6213768;23;20020;-91
2021/12/06 21:47:05;;;;;;;8.98;5.03;;;3.00;99.90;;;;;;6215772;23;20021;-91
2021/12/06 21:49:34;;;;;;;7.03;4.53;;;3.10;99.90;;;;;;6216165;23;20016;-91
2021/12/06 21:52:03;;;;;;;9.60;4.60;;;3.00;99.90;;;;;;6190803;23;20020;-89
2021/12/06 21:54:33;;;;;;;6.55;4.05;;;3.00;99.90;;;;;;6215993;23;20436;-91
2021/12/06 21:57:04;;;;;;;8.52;4.40;;;2.90;99.90;;;;;;6215562;23;20024;-91
2021/12/06 21:59:33;;;;;;;6.60;4.03;;;3.00;99.90;;;;;;6215840;23;20024;-91
2021/12/06 22:02:00;;;;;;;7.18;3.67;;;3.20;99.90;;;;;;6217523;23;20008;-90
2021/12/06 22:04:30;;;;;;;9.48;5.07;;;3.20;99.90;;;;;;6215967;23;20092;-94
2021/12/06 22:06:57;;;;;;;8.65;4.40;;;3.30;99.90;;;;;;6190751;23;20013;-92
2021/12/06 22:09:24;;;;;;;7.43;4.15;;;3.30;99.90;;;;;;6215974;23;20021;-89
2021/12/06 22:11:51;;;;;;;7.35;3.85;;;3.50;99.90;;;;;;6217691;23;20013;-95
2021/12/06 22:14:22;;;;;;;7.43;3.97;;;3.60;99.90;;;;;;6217265;23;20087;-92
2021/12/06 22:16:50;;;;;;;8.60;3.83;;;3.30;99.90;;;;;;6191292;23;20017;-91
2021/12/06 22:19:18;;;;;;;7.18;3.33;;;3.00;99.90;;;;;;6216721;23;20502;-93
2021/12/06 22:21:49;;;;;;;7.18;4.07;;;3.30;99.90;;;;;;6193353;23;20103;-92
2021/12/06 22:24:16;;;;;;;6.20;3.95;;;3.40;99.90;;;;;;6193384;23;20024;-93
2021/12/06 22:26:44;;;;;;;7.30;3.38;;;3.50;99.90;;;;;;6218656;23;20083;-90
2021/12/06 22:29:11;;;;;;;5.80;2.90;;;3.60;99.90;;;;;;6223401;23;20044;-91
2021/12/06 22:31:38;;;;;;;5.05;3.30;;;3.70;99.90;;;;;;6199157;23;20024;-89
2021/12/06 22:34:06;;;;;;;5.68;3.22;;;3.70;99.90;;;;;;6225286;23;20021;-91
2021/12/06 22:36:37;;;;;;;5.85;3.33;;;3.80;99.90;;;;;;6222629;23;20023;-92
2021/12/06 22:39:09;;;;;;;6.13;3.47;;;3.80;99.90;;;;;;6196753;23;20012;-92
2021/12/06 22:41:37;;;;;;;5.65;3.20;;;3.80;99.90;;;;;;6220433;23;20012;-92
2021/12/06 22:44:04;;;;;;;6.97;3.55;;;3.70;99.90;;;;;;6220465;23;20179;-91
2021/12/06 22:46:34;;;;;;;7.03;3.38;;;3.70;99.90;;;;;;6196030;23;20021;-92
2021/12/06 22:49:03;;;;;;;5.32;3.20;;;3.70;99.90;;;;;;6220273;23;20044;-93
2021/12/06 22:51:31;;;;;;;4.40;2.72;;;3.80;99.90;;;;;;6219483;23;20047;-93
2021/12/06 22:53:58;;;;;;;6.10;3.63;;;3.80;99.90;;;;;;6220129;23;20023;-90
2021/12/06 22:56:26;;;;;;;4.45;2.85;;;3.90;99.90;;;;;;6220981;23;20499;-91
2021/12/06 22:58:53;;;;;;;5.15;2.78;;;3.90;99.90;;;;;;6195722;23;20017;-90
2021/12/06 23:01:32;;;;;;;6.07;2.67;;;3.90;99.90;;;;;;6222208;23;20047;-91
2021/12/06 23:04:03;;;;;;;6.60;3.28;;;3.90;99.90;;;;;;6196672;23;20024;-93
2021/12/06 23:06:33;;;;;;;6.63;3.67;;;3.90;99.90;;;;;;6221199;23;20103;-90
2021/12/06 23:09:01;;;;;;;6.15;2.28;;;3.90;99.90;;;;;;6220634;23;20031;-91
2021/12/06 23:11:28;;;;;;;6.30;1.90;;;3.90;99.90;;;;;;6218140;23;20047;-90
2021/12/06 23:13:56;;;;;;;6.70;1.83;;;4.20;99.90;;;;;;6191604;23;20020;-95
2021/12/06 23:16:23;;;;;;;5.43;2.42;;;4.30;99.90;;;;;;6216362;23;20066;-91
2021/12/06 23:18:50;;;;;;;5.65;1.88;;;4.30;99.90;;;;;;6215231;23;20066;-92
2021/12/06 23:21:18;;;;;;;3.30;1.67;;;4.30;99.90;;;;;;6190628;23;20329;-94
2021/12/06 23:23:46;;;;;;;9.73;2.58;;;4.50;99.90;;;;;;6190612;23;20348;-89
2021/12/06 23:26:14;;;;;;;6.72;1.30;;;4.60;99.90;;;;;;6216469;23;20021;-92
2021/12/06 23:28:41;;;;;;;7.35;2.08;;;4.60;99.90;;;;;;6217794;23;20016;-92
2021/12/06 23:31:13;;;;;;;10.27;1.95;;;4.60;99.90;;;;;;6217835;23;20033;-90
2021/12/06 23:33:49;;;;;;;6.72;1.40;;;4.60;99.90;;;;;;6218177;23;20082;-93
2021/12/06 23:36:18;;;;;;;11.20;2.40;;;4.60;99.90;;;;;;6218378;23;20507;-90
2021/12/06 23:39:04;;;;;;;10.60;1.08;;;4.70;99.90;;;;;;6219037;23;20016;-91
2021/12/06 23:47:04;;;;;;;8.98;1.58;;;4.80;99.90;;;;;;6225016;23;20025;-91
2021/12/06 23:49:31;;;;;;;7.55;1.65;;;4.70;99.90;;;;;;6227688;23;20013;-89
2021/12/06 23:51:59;;;;;;;4.30;1.15;;;4.70;99.90;;;;;;6225835;23;20388;-92
2021/12/06 23:54:29;;;;;;;3.72;1.42;;;4.70;99.90;;;;;;6219009;23;20020;-91
2021/12/06 23:56:59;;;;;;;12.20;1.40;;;4.70;99.90;;;;;;6218851;23;20031;-94
2021/12/06 23:59:29;;;;;;;11.98;1.40;;;4.80;99.90;;;;;;6218769;23;20035;-92
